Time;durP1;ratioP1;P1;durP2;ratioP2;P2;SDS_P1;SDS_P2;PMS_P1;PMS_P2;Temp;Humidity;BMP_temperature;BMP_pressure;BME280_temperature;BME280_humidity;BME280_pressure;Samples;Min_cycle;Max_cycle;Signal;HPM_P1;HPM_P2
2023/08/10 00:02:11;;;;;;;6.80;2.83;;;;;;;16.65;83.21;101969.66;5112791;28;20053;-66
2023/08/10 00:04:39;;;;;;;6.22;2.60;;;;;;;16.64;83.41;101967.19;5107530;28;20101;-67
2023/08/10 00:07:07;;;;;;;5.57;2.60;;;;;;;16.61;83.79;101968.56;5112564;28;20047;-67
2023/08/10 00:09:34;;;;;;;6.65;2.80;;;;;;;16.60;83.96;101978.75;5112868;28;20040;-66
2023/08/10 00:12:02;;;;;;;8.80;3.33;;;;;;;16.57;84.20;101975.72;5102708;28;20492;-65
2023/08/10 00:14:32;;;;;;;5.72;2.55;;;;;;;16.54;84.47;101974.34;5094012;28;20059;-66
2023/08/10 00:17:00;;;;;;;5.35;2.70;;;;;;;16.52;84.81;101981.25;5111779;28;20055;-66
2023/08/10 00:19:27;;;;;;;5.68;2.55;;;;;;;16.50;84.86;101981.53;5113581;28;20048;-65
2023/08/10 00:21:55;;;;;;;5.40;2.72;;;;;;;16.48;85.14;101981.00;5114411;28;20044;-65
2023/08/10 00:24:23;;;;;;;7.97;2.55;;;;;;;16.47;85.23;101989.50;5112891;28;20054;-66
2023/08/10 00:26:51;;;;;;;8.98;3.20;;;;;;;16.46;85.49;101985.13;5097154;28;20047;-66
2023/08/10 00:29:19;;;;;;;5.22;2.88;;;;;;;16.44;85.12;101979.91;5113075;28;20055;-67
2023/08/10 00:31:46;;;;;;;5.35;2.60;;;;;;;16.42;85.68;101976.59;5100203;28;20054;-65
2023/08/10 00:34:14;;;;;;;5.95;2.70;;;;;;;16.44;85.38;101982.66;5116995;28;20097;-66
2023/08/10 00:36:42;;;;;;;5.03;2.38;;;;;;;16.45;85.39;101980.72;5118437;28;20051;-66
2023/08/10 00:39:10;;;;;;;8.05;2.63;;;;;;;16.45;85.24;101976.06;5118917;28;20050;-66
2023/08/10 00:41:38;;;;;;;7.18;2.92;;;;;;;16.46;85.20;101971.38;5102459;28;20047;-66
2023/08/10 00:44:06;;;;;;;4.93;2.47;;;;;;;16.46;85.31;101969.44;5101841;28;20050;-65
2023/08/10 00:46:34;;;;;;;5.82;2.90;;;;;;;16.45;84.93;101970.56;5119404;28;20108;-64
2023/08/10 00:49:04;;;;;;;10.57;3.78;;;;;;;16.43;85.23;101964.50;5118537;28;20047;-65
2023/08/10 00:51:32;;;;;;;7.10;3.25;;;;;;;16.42;85.13;101976.59;5120292;28;20491;-65
2023/08/10 00:54:00;;;;;;;8.48;2.67;;;;;;;16.42;85.29;101979.34;5117553;28;20052;-64
2023/08/10 00:56:29;;;;;;;4.82;3.10;;;;;;;16.40;85.66;101978.78;5100084;28;20403;-66
2023/08/10 00:58:56;;;;;;;7.57;2.90;;;;;;;16.38;85.79;101976.34;5086458;28;20141;-66
2023/08/10 01:01:24;;;;;;;7.07;3.00;;;;;;;16.37;85.92;101984.88;5101919;28;20050;-67
2023/08/10 01:03:52;;;;;;;8.40;3.03;;;;;;;16.35;86.03;101982.38;5114931;28;20048;-65
2023/08/10 01:07:11;;;;;;;7.47;3.15;;;;;;;16.36;86.31;101984.03;5114675;28;20047;-64
2023/08/10 01:10:06;;;;;;;8.27;2.97;;;;;;;16.37;86.49;101973.84;4997915;28;20069;-66
2023/08/10 01:13:13;;;;;;;5.07;2.80;;;;;;;16.36;86.59;101977.72;5033188;28;20045;-65
2023/08/10 01:15:48;;;;;;;5.43;2.70;;;;;;;16.37;86.61;101974.69;5089776;28;20059;-65
2023/08/10 01:18:19;;;;;;;8.18;3.15;;;;;;;16.38;86.60;101976.34;5099220;28;20051;-66
2023/08/10 01:20:48;;;;;;;5.55;3.10;;;;;;;16.38;86.81;101981.03;5099599;28;20043;-66
2023/08/10 01:23:35;;;;;;;8.68;3.38;;;;;;;16.37;86.48;101973.84;5113415;28;20050;-65
2023/08/10 01:26:03;;;;;;;4.40;2.78;;;;;;;16.35;86.91;101974.13;5113599;28;20065;-65
2023/08/10 01:28:33;;;;;;;6.15;2.97;;;;;;;16.36;87.50;101981.28;5115923;28;20045;-66
2023/08/10 01:31:04;;;;;;;5.40;3.10;;;;;;;16.37;87.04;101979.38;5114087;28;20060;-65
2023/08/10 01:33:34;;;;;;;7.93;3.10;;;;;;;16.36;86.94;101988.72;5095026;28;20044;-66
2023/08/10 01:36:03;;;;;;;4.95;3.08;;;;;;;16.34;87.12;101989.00;5096693;28;20051;-65
2023/08/10 01:38:30;;;;;;;7.10;3.20;;;;;;;16.31;87.64;101986.81;5116246;28;20055;-66
2023/08/10 01:40:58;;;;;;;7.70;3.05;;;;;;;16.31;87.52;101988.75;5114739;28;20100;-64
2023/08/10 01:43:26;;;;;;;7.55;3.30;;;;;;;16.29;87.97;101988.19;5114194;28;20410;-66
2023/08/10 01:45:56;;;;;;;6.15;2.80;;;;;;;16.28;88.50;101987.34;5097772;28;20050;-65
2023/08/10 01:48:33;;;;;;;10.95;3.17;;;;;;;16.28;88.78;101984.59;5115932;27;20105;-64
2023/08/10 01:51:03;;;;;;;6.88;3.10;;;;;;;16.30;89.51;101992.56;5099577;28;20062;-65
2023/08/10 01:53:32;;;;;;;7.03;3.05;;;;;;;16.30;90.02;101989.81;5114206;28;20043;-66
2023/08/10 01:56:00;;;;;;;7.13;3.25;;;;;;;16.31;89.97;101983.25;5114343;28;20538;-65
2023/08/10 01:58:29;;;;;;;6.40;2.85;;;;;;;16.30;89.71;101990.66;5081274;28;20108;-65
2023/08/10 02:00:57;;;;;;;7.30;3.25;;;;;;;16.27;90.00;101984.91;5114541;28;20050;-64
2023/08/10 02:03:26;;;;;;;6.82;2.90;;;;;;;16.24;90.46;101982.72;5096701;28;20518;-69
2023/08/10 02:05:53;;;;;;;7.10;3.40;;;;;;;16.24;90.71;101975.28;5114584;27;20040;-67
2023/08/10 02:08:21;;;;;;;6.35;2.92;;;;;;;16.25;90.64;101981.59;5114219;28;20490;-65
2023/08/10 02:10:49;;;;;;;8.77;3.03;;;;;;;16.27;91.17;101976.63;5102418;28;20048;-65
2023/08/10 02:13:17;;;;;;;8.77;3.15;;;;;;;16.27;91.20;101974.72;5095770;28;20050;-67
2023/08/10 02:15:45;;;;;;;7.32;3.05;;;;;;;16.27;90.93;101969.22;5117283;28;20050;-66
2023/08/10 02:18:13;;;;;;;5.90;2.88;;;;;;;16.26;91.45;101969.47;5116762;28;20051;-64
2023/08/10 02:20:41;;;;;;;6.35;3.03;;;;;;;16.27;91.43;101979.38;5105470;28;20586;-66
2023/08/10 02:23:09;;;;;;;10.40;3.15;;;;;;;16.27;91.62;101979.38;5126839;28;20177;-65
2023/08/10 02:25:36;;;;;;;6.57;3.33;;;;;;;16.26;92.30;101983.22;5108752;28;20047;-65
2023/08/10 02:28:04;;;;;;;7.13;3.28;;;;;;;16.26;92.16;101974.97;5125825;28;20123;-66
2023/08/10 02:30:32;;;;;;;6.07;3.10;;;;;;;16.25;92.26;101979.66;5086187;28;20047;-66
2023/08/10 02:33:00;;;;;;;4.93;2.97;;;;;;;16.25;92.55;101978.84;5118079;28;20055;-66
2023/08/10 02:35:28;;;;;;;8.10;3.38;;;;;;;16.24;92.99;101974.47;5117744;28;20040;-66
2023/08/10 02:37:56;;;;;;;7.85;3.58;;;;;;;16.23;93.14;101981.84;5123206;28;20099;-65
2023/08/10 02:40:24;;;;;;;6.95;2.83;;;;;;;16.24;93.41;101985.47;5117176;28;20035;-66
2023/08/10 02:42:52;;;;;;;7.88;3.30;;;;;;;16.23;93.51;101983.78;5116431;28;20050;-65
2023/08/10 02:45:20;;;;;;;7.28;3.28;;;;;;;16.23;93.74;101983.78;5114886;28;20048;-65
2023/08/10 02:47:48;;;;;;;5.97;3.25;;;;;;;16.23;94.12;101989.28;5114598;28;20032;-65
2023/08/10 02:50:16;;;;;;;7.47;3.50;;;;;;;16.23;94.24;101992.03;5114771;28;20058;-66
2023/08/10 02:52:44;;;;;;;9.05;3.20;;;;;;;16.21;94.76;101992.34;5111738;28;20050;-66
2023/08/10 02:55:12;;;;;;;7.07;3.13;;;;;;;16.20;95.33;101996.16;5114370;28;20039;-66
2023/08/10 02:57:39;;;;;;;9.32;3.72;;;;;;;16.18;95.46;101999.19;5097085;28;20522;-66
2023/08/10 03:00:09;;;;;;;5.75;3.20;;;;;;;16.17;95.39;101996.72;5097441;28;20403;-66
2023/08/10 03:02:37;;;;;;;7.10;3.40;;;;;;;16.15;96.05;101997.00;5113440;28;20035;-70
2023/08/10 03:05:07;;;;;;;12.90;4.57;;;;;;;16.12;96.21;101997.56;5094181;28;20499;-65
2023/08/10 03:07:36;;;;;;;8.13;3.42;;;;;;;16.11;96.44;102000.56;5097960;28;20048;-67
2023/08/10 03:10:04;;;;;;;5.35;3.38;;;;;;;16.07;96.93;102003.06;5115008;28;20063;-61
2023/08/10 03:12:35;;;;;;;8.80;3.72;;;;;;;16.05;97.48;102007.19;5131991;27;20039;-63
2023/08/10 03:15:08;;;;;;;7.47;3.33;;;;;;;16.02;98.07;102000.31;5101183;28;20048;-66
2023/08/10 03:17:41;;;;;;;9.00;3.50;;;;;;;16.01;98.36;101998.66;5097611;28;20049;-68
2023/08/10 03:20:13;;;;;;;6.68;3.17;;;;;;;15.98;98.77;102008.28;5085762;28;20063;-59
2023/08/10 03:22:41;;;;;;;7.63;3.65;;;;;;;15.95;99.03;101999.78;5114872;28;20067;-59
2023/08/10 03:25:11;;;;;;;8.45;3.53;;;;;;;15.96;99.77;102006.91;5109575;28;20493;-65
2023/08/10 03:27:39;;;;;;;7.65;3.50;;;;;;;15.98;99.89;102012.97;5076791;28;20504;-66
2023/08/10 03:30:10;;;;;;;8.32;3.70;;;;;;;15.99;100.00;102022.84;5114138;28;20449;-65
2023/08/10 03:32:38;;;;;;;7.53;3.53;;;;;;;15.99;100.00;102009.09;5114159;28;20100;-65
2023/08/10 03:35:08;;;;;;;7.75;3.95;;;;;;;15.99;100.00;102009.09;5112437;28;20039;-65
2023/08/10 03:37:36;;;;;;;8.70;3.25;;;;;;;16.00;100.00;102013.53;5096457;28;20100;-66
2023/08/10 03:40:04;;;;;;;7.93;3.83;;;;;;;16.00;100.00;102008.03;5112466;28;20059;-66
2023/08/10 03:42:32;;;;;;;8.43;3.38;;;;;;;16.00;100.00;102007.22;5113231;28;20053;-65
2023/08/10 03:45:00;;;;;;;7.88;3.63;;;;;;;16.00;100.00;102008.03;5110610;28;20047;-66
2023/08/10 03:47:28;;;;;;;7.22;3.55;;;;;;;16.01;100.00;101995.09;5096010;28;20101;-66
2023/08/10 03:49:56;;;;;;;10.25;3.50;;;;;;;16.00;100.00;102005.28;5096140;28;20055;-66
2023/08/10 03:52:25;;;;;;;7.88;3.30;;;;;;;16.00;100.00;102008.03;5112807;28;20054;-66
2023/08/10 03:54:53;;;;;;;7.05;3.72;;;;;;;15.99;100.00;102006.34;5128403;27;20047;-66
2023/08/10 03:57:22;;;;;;;7.50;3.22;;;;;;;15.96;100.00;102007.72;5096260;28;20063;-66
2023/08/10 03:59:50;;;;;;;7.82;3.42;;;;;;;15.97;100.00;102020.41;5112708;28;20421;-66
2023/08/10 04:02:18;;;;;;;6.40;3.45;;;;;;;15.96;100.00;102023.41;5112054;28;20044;-66
2023/08/10 04:04:46;;;;;;;9.93;3.55;;;;;;;15.95;100.00;102019.84;5111859;28;20499;-66
2023/08/10 04:07:14;;;;;;;9.38;3.75;;;;;;;15.95;100.00;102027.28;5109493;28;20044;-67
2023/08/10 04:09:46;;;;;;;8.82;3.70;;;;;;;15.95;100.00;102021.78;5108674;28;20055;-65
2023/08/10 04:12:15;;;;;;;9.10;4.60;;;;;;;15.95;100.00;102030.84;5110218;28;20065;-66
2023/08/10 04:14:43;;;;;;;6.65;3.60;;;;;;;15.96;100.00;102031.66;5112790;28;20047;-67
2023/08/10 04:17:11;;;;;;;10.23;3.58;;;;;;;15.94;100.00;102029.16;5113042;28;20456;-65
2023/08/10 04:19:39;;;;;;;6.28;3.40;;;;;;;15.95;100.00;102024.53;5114095;28;20055;-66
2023/08/10 04:22:07;;;;;;;6.18;3.63;;;;;;;15.95;100.00;102025.34;5111960;28;20043;-67
2023/08/10 04:24:34;;;;;;;9.52;3.65;;;;;;;15.97;100.00;102027.81;5113671;28;20388;-65
2023/08/10 04:27:02;;;;;;;8.95;3.90;;;;;;;15.98;100.00;102032.22;5112966;28;20058;-65
2023/08/10 04:29:32;;;;;;;9.70;4.18;;;;;;;15.96;100.00;102023.41;5096304;28;20070;-66
2023/08/10 04:31:59;;;;;;;7.38;4.03;;;;;;;15.93;100.00;102022.03;5113880;28;20385;-69
2023/08/10 04:34:27;;;;;;;8.45;4.35;;;;;;;15.91;100.00;102012.41;5078759;28;20043;-66
2023/08/10 04:36:55;;;;;;;8.82;4.03;;;;;;;15.89;100.00;102018.19;5102328;28;20054;-67
2023/08/10 04:39:23;;;;;;;7.25;3.95;;;;;;;15.84;100.00;102028.34;5105744;28;20043;-67
2023/08/10 04:41:51;;;;;;;8.23;3.85;;;;;;;15.77;100.00;102026.69;5110702;28;20048;-65
2023/08/10 04:44:18;;;;;;;7.43;3.97;;;;;;;15.74;100.00;102032.75;5122360;28;20040;-67
2023/08/10 04:46:46;;;;;;;7.63;4.25;;;;;;;15.74;100.00;102037.41;5113413;28;20044;-67
2023/08/10 04:49:14;;;;;;;10.88;4.32;;;;;;;15.73;100.00;102033.84;5112068;28;20051;-67
2023/08/10 04:51:42;;;;;;;8.55;4.40;;;;;;;15.72;100.00;102043.19;5111167;28;20051;-65
2023/08/10 04:54:10;;;;;;;8.07;4.20;;;;;;;15.72;100.00;102034.94;5112547;28;20042;-65
2023/08/10 04:56:37;;;;;;;7.63;4.20;;;;;;;15.75;100.00;102039.91;5111764;28;20036;-66
2023/08/10 04:59:05;;;;;;;9.30;4.43;;;;;;;15.79;100.00;102044.84;5113057;28;20044;-65
2023/08/10 05:01:33;;;;;;;7.80;4.50;;;;;;;15.84;100.00;102042.09;5110637;28;20054;-67
2023/08/10 05:04:01;;;;;;;8.35;4.38;;;;;;;15.85;100.00;102044.59;5111109;28;20047;-66
2023/08/10 05:06:29;;;;;;;11.32;5.05;;;;;;;15.87;100.00;102041.53;5112236;28;20080;-66
2023/08/10 05:08:56;;;;;;;7.32;4.70;;;;;;;15.87;100.00;102038.78;5113521;28;20118;-67
2023/08/10 05:11:24;;;;;;;9.13;4.60;;;;;;;15.88;100.00;102037.72;5113805;28;20051;-66
2023/08/10 05:13:52;;;;;;;8.38;4.50;;;;;;;15.90;100.00;102041.00;5111791;28;20063;-66
2023/08/10 05:16:21;;;;;;;8.55;4.90;;;;;;;15.90;100.00;102043.75;4389745;28;10000459;-67
2023/08/10 05:18:50;;;;;;;10.27;5.40;;;;;;;15.90;100.00;102036.34;5112707;28;20076;-67
2023/08/10 05:21:18;;;;;;;8.98;5.00;;;;;;;15.91;100.00;102045.41;5118313;28;20076;-66
2023/08/10 05:23:46;;;;;;;11.90;5.07;;;;;;;15.92;100.00;102039.63;5115588;28;20044;-66
2023/08/10 05:26:14;;;;;;;9.25;5.00;;;;;;;15.94;100.00;102042.91;5080276;28;20050;-65
2023/08/10 05:28:42;;;;;;;11.50;4.88;;;;;;;15.94;100.00;102039.34;5118778;28;20051;-65
2023/08/10 05:31:11;;;;;;;7.53;4.93;;;;;;;15.96;100.00;102039.91;5115535;28;20043;-67
2023/08/10 05:33:39;;;;;;;8.32;4.53;;;;;;;15.98;100.00;102040.47;5113841;28;20548;-66
2023/08/10 05:36:07;;;;;;;8.95;4.93;;;;;;;16.01;100.00;102041.81;5111759;28;20044;-66
2023/08/10 05:38:37;;;;;;;8.80;4.60;;;;;;;16.03;100.00;102039.63;5112448;28;20462;-68
2023/08/10 05:41:05;;;;;;;12.10;4.90;;;;;;;16.03;100.00;102034.94;5082884;28;20039;-67
2023/08/10 05:43:33;;;;;;;9.38;4.78;;;;;;;16.05;100.00;102041.00;5093336;28;20411;-67
2023/08/10 05:46:01;;;;;;;9.98;4.97;;;;;;;16.05;100.00;102032.75;5076170;28;20047;-68
2023/08/10 05:48:29;;;;;;;10.88;5.45;;;;;;;16.07;100.00;102033.31;5113529;28;20051;-66
2023/08/10 05:50:56;;;;;;;9.20;4.88;;;;;;;16.09;100.00;102035.78;5112726;28;20055;-66
2023/08/10 05:53:24;;;;;;;11.55;5.85;;;;;;;16.10;100.00;102030.00;5112335;28;20050;-66
2023/08/10 05:55:52;;;;;;;15.35;5.30;;;;;;;16.11;100.00;102028.06;5095170;28;20104;-67
2023/08/10 05:58:20;;;;;;;11.00;5.47;;;;;;;16.10;100.00;102027.25;5111223;28;20415;-66
2023/08/10 06:00:48;;;;;;;10.75;5.70;;;;;;;16.10;100.00;102030.00;5112441;28;20051;-67
2023/08/10 06:03:16;;;;;;;8.73;5.40;;;;;;;16.10;100.00;102026.44;5111710;28;20056;-65
2023/08/10 06:05:45;;;;;;;9.75;5.38;;;;;;;16.08;100.00;102032.19;5113135;28;20065;-66
2023/08/10 06:08:14;;;;;;;11.27;5.80;;;;;;;16.09;100.00;102038.53;5110515;28;20043;-66
2023/08/10 06:10:42;;;;;;;12.65;6.38;;;;;;;16.09;100.00;102035.78;5112807;28;20056;-67
2023/08/10 06:13:09;;;;;;;12.82;6.70;;;;;;;16.08;100.00;102040.44;5115240;28;20056;-66
2023/08/10 06:15:37;;;;;;;14.57;6.32;;;;;;;16.07;100.00;102035.25;5119443;28;20113;-67
2023/08/10 06:18:05;;;;;;;9.80;5.38;;;;;;;16.08;100.00;102043.19;5115987;28;20051;-66
2023/08/10 06:20:33;;;;;;;9.88;5.40;;;;;;;16.08;100.00;102043.19;5115191;28;20051;-68
2023/08/10 06:23:01;;;;;;;9.30;4.85;;;;;;;16.10;100.00;102043.75;5116442;27;20066;-67
2023/08/10 06:25:30;;;;;;;8.40;4.88;;;;;;;16.12;100.00;102041.56;5095508;28;20122;-68
2023/08/10 06:27:59;;;;;;;8.30;4.95;;;;;;;16.13;100.00;102034.13;5111192;28;20055;-64
2023/08/10 06:30:27;;;;;;;8.98;5.35;;;;;;;16.15;100.00;102037.44;5116284;28;20047;-66
2023/08/10 06:32:55;;;;;;;9.07;4.82;;;;;;;16.17;100.00;102038.81;5097973;28;20514;-65
2023/08/10 06:35:24;;;;;;;9.00;3.67;;;;;;;16.19;100.00;102042.09;5115537;28;20392;-62
2023/08/10 06:37:52;;;;;;;14.27;4.60;;;;;;;16.24;100.00;102040.47;5114579;28;20060;-66
2023/08/10 06:40:21;;;;;;;9.48;4.55;;;;;;;16.25;100.00;102033.84;5115629;28;20051;-66
2023/08/10 06:42:49;;;;;;;9.90;4.47;;;;;;;16.28;100.00;102030.53;5116113;28;20093;-68
2023/08/10 06:45:25;;;;;;;10.20;4.18;;;;;;;16.29;100.00;102032.19;5098065;28;20407;-68
2023/08/10 06:47:53;;;;;;;7.18;4.07;;;;;;;16.29;100.00;102033.03;5116401;28;20048;-68
2023/08/10 06:50:23;;;;;;;8.45;4.80;;;;;;;16.30;100.00;102028.34;5114322;28;20062;-68
2023/08/10 06:52:51;;;;;;;8.57;4.22;;;;;;;16.32;100.00;102026.13;5114502;28;20046;-67
2023/08/10 06:55:20;;;;;;;6.60;3.40;;;;;;;16.34;100.00;102029.44;5115569;28;20051;-68
2023/08/10 06:57:48;;;;;;;8.85;4.65;;;;;;;16.35;100.00;102031.06;5096938;28;20039;-69
2023/08/10 07:00:20;;;;;;;10.15;4.25;;;;;;;16.37;100.00;102024.19;5115425;28;20074;-67
2023/08/10 07:02:54;;;;;;;11.40;5.30;;;;;;;16.40;100.00;102039.31;5112168;28;20039;-68
2023/08/10 07:05:26;;;;;;;7.85;4.30;;;;;;;16.40;100.00;102031.91;5114929;28;20047;-68
2023/08/10 07:07:55;;;;;;;8.80;4.68;;;;;;;16.43;100.00;102032.44;5114843;28;20380;-67
2023/08/10 07:10:23;;;;;;;12.18;5.95;;;;;;;16.44;100.00;102029.41;5113308;28;20089;-69
2023/08/10 07:12:51;;;;;;;7.13;4.40;;;;;;;16.46;100.00;102031.91;5114696;28;20106;-68
2023/08/10 07:15:18;;;;;;;8.80;4.05;;;;;;;16.47;100.00;102028.03;5114713;28;20062;-67
2023/08/10 07:17:48;;;;;;;13.95;5.03;;;;;;;16.50;100.00;102028.31;5115231;27;20039;-65
2023/08/10 07:20:18;;;;;;;11.45;5.10;;;;;;;16.52;100.00;102023.34;5113494;28;20047;-66
2023/08/10 07:22:47;;;;;;;11.50;5.15;;;;;;;16.54;100.00;102017.56;5115604;28;20092;-66
2023/08/10 07:25:17;;;;;;;8.63;4.18;;;;;;;16.55;100.00;102030.22;5113918;28;20415;-65
2023/08/10 07:27:47;;;;;;;25.95;8.60;;;;;;;16.57;100.00;102034.34;5114726;28;20088;-66
2023/08/10 07:30:15;;;;;;;17.17;6.10;;;;;;;16.59;100.00;102034.88;5114527;28;20052;-65
2023/08/10 07:32:43;;;;;;;11.18;5.00;;;;;;;16.59;99.64;102032.13;5102005;28;20056;-64
2023/08/10 07:35:11;;;;;;;7.65;4.18;;;;;;;16.60;99.21;102033.78;5116925;28;20043;-58
2023/08/10 07:37:40;;;;;;;9.18;4.57;;;;;;;16.62;98.56;102033.53;5135215;28;20035;-64
2023/08/10 07:40:12;;;;;;;14.70;5.40;;;;;;;16.66;98.60;102037.34;5119236;28;20051;-65
2023/08/10 07:42:40;;;;;;;11.05;4.85;;;;;;;16.68;98.86;102035.13;5122921;28;20103;-60
2023/08/10 07:45:09;;;;;;;6.85;4.30;;;;;;;16.71;98.52;102036.50;5135318;28;20035;-62
2023/08/10 07:47:38;;;;;;;7.90;4.05;;;;;;;16.71;92.85;102040.06;5134768;28;20069;-57
2023/08/10 07:50:06;;;;;;;11.63;3.75;;;;;;;16.70;85.49;102037.63;5122543;28;20054;-66
2023/08/10 07:52:34;;;;;;;11.07;3.80;;;;;;;16.73;83.93;102042.56;5114047;28;20057;-66
2023/08/10 07:55:02;;;;;;;24.15;7.78;;;;;;;16.78;89.32;102045.28;5114793;28;20036;-66
2023/08/10 07:57:30;;;;;;;11.45;5.22;;;;;;;16.81;87.82;102034.59;5113619;28;20484;-67
2023/08/10 08:00:04;;;;;;;18.60;6.95;;;;;;;16.89;91.27;102035.94;5114076;28;20074;-65
2023/08/10 08:02:39;;;;;;;14.30;5.25;;;;;;;16.90;87.98;102043.06;5113707;28;20052;-65
2023/08/10 08:05:07;;;;;;;13.25;4.95;;;;;;;16.92;87.12;102043.63;5109270;28;20044;-66
2023/08/10 08:07:35;;;;;;;17.17;6.18;;;;;;;16.93;86.60;102042.53;5092626;28;20044;-66
2023/08/10 08:10:03;;;;;;;10.95;5.25;;;;;;;16.97;86.89;102038.09;5108185;28;20051;-66
2023/08/10 08:12:32;;;;;;;12.15;5.72;;;;;;;16.99;86.25;102038.63;5109631;28;20380;-67
2023/08/10 08:15:03;;;;;;;8.80;4.47;;;;;;;17.01;85.50;102043.88;5096209;28;20577;-67
2023/08/10 08:18:11;;;;;;;17.10;6.55;;;;;;;17.08;90.21;102038.88;5114580;28;20054;-66
2023/08/10 08:20:39;;;;;;;10.63;4.53;;;;;;;17.10;84.03;102042.19;5093963;28;20044;-66
2023/08/10 08:23:07;;;;;;;8.52;3.60;;;;;;;17.08;76.00;102036.13;5096295;28;20066;-66
2023/08/10 08:25:34;;;;;;;19.75;7.22;;;;;;;17.18;81.35;102049.03;5125615;28;20035;-67
2023/08/10 08:28:06;;;;;;;10.07;4.30;;;;;;;17.27;84.61;102039.06;5120302;28;20054;-67
2023/08/10 08:30:34;;;;;;;8.27;3.35;;;;;;;17.30;79.71;102034.94;5078947;28;20127;-66
2023/08/10 08:33:02;;;;;;;5.75;2.90;;;;;;;17.27;72.79;102047.34;5121920;28;20079;-66
2023/08/10 08:35:30;;;;;;;10.50;3.88;;;;;;;17.29;75.02;102045.09;5118438;28;20036;-68
2023/08/10 08:37:58;;;;;;;9.57;4.00;;;;;;;17.32;77.67;102047.31;5092102;28;20044;-66
2023/08/10 08:40:26;;;;;;;11.73;4.68;;;;;;;17.37;82.21;102047.28;5099898;28;20116;-66
2023/08/10 08:42:55;;;;;;;23.23;7.70;;;;;;;17.44;87.98;102042.28;5111640;28;20556;-66
2023/08/10 08:45:23;;;;;;;8.52;4.13;;;;;;;17.42;80.14;102038.16;5095883;28;20479;-66
2023/08/10 08:47:52;;;;;;;7.97;3.83;;;;;;;17.43;78.33;102040.63;5095688;28;20491;-66
2023/08/10 08:50:20;;;;;;;9.60;4.10;;;;;;;17.44;76.86;102042.28;5093454;28;20531;-66
2023/08/10 08:52:48;;;;;;;16.13;4.90;;;;;;;17.51;81.34;102041.97;5099399;28;20119;-66
2023/08/10 08:55:16;;;;;;;5.45;2.85;;;;;;;17.54;76.97;102038.63;5116010;28;20058;-66
2023/08/10 08:57:44;;;;;;;8.25;2.90;;;;;;;17.58;76.54;102030.59;5117819;28;20047;-65
2023/08/10 09:00:12;;;;;;;7.90;2.95;;;;;;;17.64;76.09;102037.75;5116591;28;20055;-66
2023/08/10 09:02:40;;;;;;;8.45;3.20;;;;;;;17.70;76.17;102033.81;5116563;28;20042;-66
2023/08/10 09:05:09;;;;;;;11.70;3.95;;;;;;;17.78;79.78;102048.97;5115022;28;20043;-66
2023/08/10 09:07:37;;;;;;;11.57;3.95;;;;;;;17.83;80.61;102041.50;5117481;28;20536;-66
2023/08/10 09:10:05;;;;;;;15.85;5.60;;;;;;;17.91;86.51;102042.00;5109681;28;20063;-67
2023/08/10 09:12:35;;;;;;;9.35;3.60;;;;;;;17.92;81.20;102035.34;5117979;28;20048;-66
2023/08/10 09:15:11;;;;;;;6.03;2.80;;;;;;;17.90;76.72;102032.09;5115430;28;20052;-67
2023/08/10 09:17:52;;;;;;;6.93;3.20;;;;;;;17.96;78.24;102025.41;5116134;28;20108;-66
2023/08/10 09:20:22;;;;;;;9.20;3.25;;;;;;;17.95;78.24;102023.78;5115201;28;20395;-66
2023/08/10 09:22:52;;;;;;;4.10;2.40;;;;;;;17.96;76.03;102019.88;5116381;28;20048;-67
2023/08/10 09:25:21;;;;;;;8.60;3.80;;;;;;;17.99;79.23;102022.06;5117439;28;20043;-67
2023/08/10 09:27:50;;;;;;;13.77;4.13;;;;;;;18.09;82.99;102024.75;5115536;28;20069;-66
2023/08/10 09:30:19;;;;;;;5.50;2.67;;;;;;;18.10;77.93;102026.38;5117266;28;20377;-67
2023/08/10 09:32:47;;;;;;;6.18;2.70;;;;;;;18.15;77.13;102028.28;5099043;28;20045;-67
2023/08/10 09:35:17;;;;;;;4.70;2.45;;;;;;;18.16;76.55;102030.75;5115601;28;20043;-66
2023/08/10 09:37:46;;;;;;;7.28;3.38;;;;;;;18.21;79.82;102035.41;5115350;28;20047;-67
2023/08/10 09:40:19;;;;;;;5.15;2.45;;;;;;;18.22;75.90;102026.00;5115843;28;20047;-68
2023/08/10 09:42:49;;;;;;;6.43;2.53;;;;;;;18.22;76.61;102021.31;5113779;28;20055;-67
2023/08/10 09:45:17;;;;;;;5.68;2.67;;;;;;;18.23;77.89;102020.22;5116566;28;20051;-67
2023/08/10 09:47:45;;;;;;;5.38;2.50;;;;;;;18.22;76.04;102018.53;5115358;28;20059;-66
2023/08/10 09:50:15;;;;;;;7.72;2.90;;;;;;;18.22;76.95;102018.53;5113756;28;20043;-66
2023/08/10 09:52:44;;;;;;;6.85;2.50;;;;;;;18.22;78.78;102026.81;5116013;28;20100;-66
2023/08/10 09:55:13;;;;;;;4.82;2.20;;;;;;;18.18;74.66;102028.50;5067025;28;20040;-67
2023/08/10 09:57:46;;;;;;;4.63;2.03;;;;;;;18.18;73.38;102031.25;5119718;28;20044;-66
2023/08/10 10:00:18;;;;;;;4.97;2.22;;;;;;;18.18;75.05;102028.50;5117880;28;20499;-66
2023/08/10 10:02:48;;;;;;;5.00;2.35;;;;;;;18.17;74.26;102028.81;5117153;28;20036;-67
2023/08/10 10:05:19;;;;;;;5.22;2.20;;;;;;;18.18;74.26;102028.50;5082383;28;20055;-67
2023/08/10 10:08:04;;;;;;;4.72;2.50;;;;;;;18.19;73.96;102030.16;5116311;28;20043;-67
2023/08/10 10:10:35;;;;;;;5.55;2.38;;;;;;;18.21;74.70;102027.94;5113882;28;20043;-68
2023/08/10 10:13:05;;;;;;;7.18;3.10;;;;;;;18.24;78.60;102027.34;5116384;28;20048;-66
2023/08/10 10:15:34;;;;;;;6.45;3.33;;;;;;;18.25;77.60;102022.66;5098533;28;20056;-68
2023/08/10 10:18:03;;;;;;;4.65;2.30;;;;;;;18.25;75.84;102020.72;5115472;28;20048;-68
2023/08/10 10:20:31;;;;;;;3.58;2.10;;;;;;;18.27;75.86;102018.50;5114849;28;20092;-66
2023/08/10 10:22:59;;;;;;;6.07;2.50;;;;;;;18.33;76.90;102021.19;5115247;28;20483;-66
2023/08/10 10:25:27;;;;;;;7.35;2.78;;;;;;;18.37;75.98;102022.25;5115799;28;20047;-67
2023/08/10 10:27:56;;;;;;;3.88;2.45;;;;;;;18.38;75.80;102026.69;5098821;28;20499;-67
2023/08/10 10:30:24;;;;;;;8.15;2.90;;;;;;;18.41;78.66;102031.63;5098561;28;20074;-66
2023/08/10 10:32:52;;;;;;;9.63;2.88;;;;;;;18.42;77.22;102044.28;5114163;28;20052;-66
2023/08/10 10:35:29;;;;;;;5.60;2.60;;;;;;;18.45;78.41;102039.03;5114582;28;20055;-66
2023/08/10 10:37:58;;;;;;;6.60;2.75;;;;;;;18.48;77.26;102040.38;5114970;28;20050;-66
2023/08/10 10:40:27;;;;;;;6.70;2.97;;;;;;;18.50;77.38;102038.16;5114484;28;20044;-67
2023/08/10 10:43:15;;;;;;;5.40;2.42;;;;;;;18.51;77.00;102039.78;5114195;28;20174;-67
2023/08/10 10:45:44;;;;;;;6.38;3.17;;;;;;;18.57;80.05;102040.53;5115923;28;20063;-68
2023/08/10 10:48:13;;;;;;;7.57;3.10;;;;;;;18.59;78.55;102033.66;5114543;28;20078;-66
2023/08/10 10:50:41;;;;;;;6.88;2.95;;;;;;;18.63;78.30;102023.63;5113672;28;20511;-66
2023/08/10 10:53:13;;;;;;;8.85;3.10;;;;;;;18.67;78.82;102027.47;5115497;28;20544;-66
2023/08/10 10:55:45;;;;;;;5.78;2.60;;;;;;;18.71;77.31;102027.69;5098059;28;20040;-68
2023/08/10 10:58:15;;;;;;;5.13;2.63;;;;;;;18.76;76.70;102030.44;5116084;28;20040;-67
2023/08/10 11:00:44;;;;;;;6.45;3.20;;;;;;;18.82;75.16;102025.69;5115501;28;20054;-67
2023/08/10 11:03:18;;;;;;;7.22;3.60;;;;;;;18.86;74.67;102035.84;5098531;28;20058;-67
2023/08/10 11:05:47;;;;;;;7.00;3.28;;;;;;;18.89;74.73;102024.19;5114023;28;20048;-67
2023/08/10 11:08:15;;;;;;;7.93;3.20;;;;;;;18.93;74.07;102028.03;5097868;28;20568;-67
2023/08/10 11:10:45;;;;;;;5.78;2.53;;;;;;;18.96;74.60;102031.31;5114910;28;20084;-67
2023/08/10 11:13:12;;;;;;;8.80;3.15;;;;;;;18.97;74.75;102028.25;5115321;28;20048;-67
2023/08/10 11:15:40;;;;;;;7.75;3.15;;;;;;;19.00;75.95;102033.19;5096028;28;20067;-67
2023/08/10 11:18:12;;;;;;;7.43;2.90;;;;;;;19.02;76.20;102022.66;5115132;28;20044;-67
2023/08/10 11:20:45;;;;;;;4.75;2.92;;;;;;;19.04;76.81;102023.19;5117205;28;20047;-68
2023/08/10 11:23:13;;;;;;;7.68;2.90;;;;;;;19.06;74.23;102020.94;5115399;28;20043;-68
2023/08/10 11:25:50;;;;;;;4.15;2.70;;;;;;;19.07;73.81;102019.84;5115836;28;20048;-68
2023/08/10 11:28:20;;;;;;;4.72;2.55;;;;;;;19.08;74.17;102018.72;5120618;28;20044;-69
2023/08/10 11:30:48;;;;;;;4.35;2.53;;;;;;;19.10;73.98;102016.47;5128281;28;20163;-69
2023/08/10 11:33:17;;;;;;;7.32;3.00;;;;;;;19.14;74.33;102016.69;5099493;28;20047;-68